createdAt,value
2022-11-10T00:01:13.147Z,12.58
2022-11-10T00:04:00.969Z,12.60
2022-11-10T00:06:48.946Z,12.59
2022-11-10T00:09:36.182Z,12.60
2022-11-10T00:12:24.354Z,12.55
2022-11-10T00:15:30.951Z,12.55
2022-11-10T00:18:17.949Z,12.53
2022-11-10T00:21:07.992Z,12.50
2022-11-10T00:23:55.104Z,12.50
2022-11-10T00:26:43.001Z,12.49
2022-11-10T00:29:30.434Z,12.53
2022-11-10T00:32:19.185Z,12.54
2022-11-10T00:35:07.646Z,12.50
2022-11-10T00:37:55.477Z,12.54
2022-11-10T00:40:42.487Z,12.38
2022-11-10T00:43:31.033Z,12.57
2022-11-10T00:46:18.487Z,12.56
2022-11-10T00:49:07.109Z,12.52
2022-11-10T00:51:54.624Z,12.54
2022-11-10T00:54:42.160Z,12.55
2022-11-10T00:57:29.199Z,12.55
2022-11-10T01:00:18.013Z,12.58
2022-11-10T01:03:05.577Z,12.54
2022-11-10T01:05:54.028Z,12.55
2022-11-10T01:08:43.071Z,12.54
2022-11-10T01:11:30.489Z,12.53
2022-11-10T01:14:18.004Z,12.50
2022-11-10T01:17:05.625Z,12.44
2022-11-10T01:19:53.232Z,12.40
2022-11-10T01:22:42.194Z,12.30
2022-11-10T01:25:29.183Z,12.30
2022-11-10T01:28:17.180Z,12.17
2022-11-10T01:31:07.284Z,12.12
2022-11-10T01:33:55.446Z,12.06
2022-11-10T01:36:42.311Z,12.04
2022-11-10T01:39:31.547Z,12.00
2022-11-10T01:42:25.747Z,11.91
2022-11-10T01:45:46.416Z,11.85
2022-11-10T01:48:38.190Z,11.83
2022-11-10T01:51:28.999Z,11.79
2022-11-10T01:54:21.091Z,11.71
2022-11-10T01:57:13.617Z,11.72
2022-11-10T02:00:01.456Z,11.70
2022-11-10T02:02:54.275Z,11.68
2022-11-10T02:05:41.983Z,11.70
2022-11-10T02:08:29.958Z,11.68
2022-11-10T02:11:18.328Z,11.67
2022-11-10T02:14:08.231Z,11.67
2022-11-10T02:16:55.397Z,11.65
2022-11-10T02:19:43.729Z,11.66
2022-11-10T02:22:31.944Z,11.64
2022-11-10T02:25:22.762Z,11.66
2022-11-10T02:28:10.247Z,11.66
2022-11-10T02:30:57.041Z,11.62
2022-11-10T02:33:44.891Z,11.65
2022-11-10T02:36:32.514Z,11.65
2022-11-10T02:39:20.662Z,11.64
2022-11-10T02:42:10.699Z,11.67
2022-11-10T02:44:58.462Z,11.66
2022-11-10T02:47:45.990Z,11.63
2022-11-10T02:50:33.383Z,11.62
2022-11-10T02:53:21.720Z,11.62
2022-11-10T02:56:10.716Z,11.62
2022-11-10T02:58:58.605Z,11.62
2022-11-10T03:01:46.050Z,11.64
2022-11-10T03:04:33.425Z,11.48
2022-11-10T03:07:20.404Z,11.65
2022-11-10T03:10:09.293Z,11.64
2022-11-10T03:12:59.140Z,11.64
2022-11-10T03:15:48.793Z,11.64
2022-11-10T03:18:35.915Z,11.66
2022-11-10T03:21:23.863Z,11.68
2022-11-10T03:24:11.297Z,11.67
2022-11-10T03:26:59.278Z,11.69
2022-11-10T03:29:47.719Z,11.71
2022-11-10T03:32:35.620Z,11.72
2022-11-10T03:35:23.222Z,11.73
2022-11-10T03:38:10.274Z,11.73
2022-11-10T03:41:18.036Z,11.75
2022-11-10T03:44:05.789Z,11.75
2022-11-10T03:46:54.005Z,11.78
2022-11-10T03:49:42.405Z,11.76
2022-11-10T03:52:29.449Z,11.77
2022-11-10T03:55:19.459Z,11.78
2022-11-10T03:58:06.519Z,11.81
2022-11-10T04:00:54.912Z,11.82
2022-11-10T04:03:47.475Z,11.81
2022-11-10T04:06:55.027Z,11.78
2022-11-10T04:09:42.330Z,11.75
2022-11-10T04:12:47.024Z,11.76
2022-11-10T04:15:43.595Z,11.77
2022-11-10T04:18:31.327Z,11.69
2022-11-10T04:21:19.408Z,11.66
2022-11-10T04:24:08.282Z,11.59
2022-11-10T04:26:55.522Z,11.59
2022-11-10T04:29:42.890Z,11.64
2022-11-10T04:32:29.865Z,11.66
2022-11-10T04:35:17.304Z,11.65
2022-11-10T04:38:06.243Z,11.69
2022-11-10T04:40:53.632Z,11.68
2022-11-10T04:43:42.365Z,11.68
2022-11-10T04:46:32.157Z,11.68
2022-11-10T04:49:19.868Z,11.68
2022-11-10T04:52:08.668Z,11.67
2022-11-10T04:54:58.105Z,11.67
2022-11-10T04:57:45.054Z,11.66
2022-11-10T05:00:32.803Z,11.65
2022-11-10T05:03:20.222Z,11.65
2022-11-10T05:06:08.806Z,11.64
2022-11-10T05:08:55.938Z,11.64
2022-11-10T05:11:44.647Z,11.64
2022-11-10T05:14:31.743Z,11.63
2022-11-10T05:17:18.907Z,11.62
2022-11-10T05:20:06.694Z,11.62
2022-11-10T05:23:11.911Z,11.60
2022-11-10T05:25:59.038Z,11.57
2022-11-10T05:28:47.996Z,11.55
2022-11-10T05:31:34.682Z,11.55
2022-11-10T05:34:22.190Z,11.56
2022-11-10T05:37:09.269Z,11.55
2022-11-10T05:39:56.880Z,11.53
2022-11-10T05:42:44.664Z,11.47
2022-11-10T05:45:34.150Z,11.44
2022-11-10T05:48:21.030Z,11.41
2022-11-10T05:51:08.882Z,11.38
2022-11-10T05:53:55.783Z,11.31
2022-11-10T05:56:43.822Z,11.22
2022-11-10T05:59:30.768Z,11.26
2022-11-10T06:02:19.179Z,11.25
2022-11-10T06:05:07.835Z,11.20
2022-11-10T06:07:55.017Z,11.14
2022-11-10T06:10:42.302Z,11.12
2022-11-10T06:13:29.364Z,11.13
2022-11-10T06:16:16.387Z,11.13
2022-11-10T06:19:05.007Z,11.10
2022-11-10T06:21:57.078Z,11.08
2022-11-10T06:24:47.831Z,11.04
2022-11-10T06:27:35.062Z,10.98
2022-11-10T06:30:22.118Z,10.99
2022-11-10T06:33:10.924Z,10.98
2022-11-10T06:35:59.892Z,10.98
2022-11-10T06:38:47.187Z,10.94
2022-11-10T06:41:34.619Z,10.89
2022-11-10T06:44:22.105Z,10.88
2022-11-10T06:47:09.278Z,10.82
2022-11-10T06:49:56.843Z,10.80
2022-11-10T06:52:45.363Z,10.78
2022-11-10T06:55:33.607Z,10.82
2022-11-10T06:58:20.502Z,10.80
2022-11-10T07:01:07.838Z,10.81
2022-11-10T07:04:18.233Z,10.80
2022-11-10T07:07:02.826Z,10.80
2022-11-10T07:09:51.206Z,10.76
2022-11-10T07:12:38.508Z,10.76
2022-11-10T07:15:25.984Z,10.72
2022-11-10T07:18:13.792Z,10.70
2022-11-10T07:21:03.299Z,10.65
2022-11-10T07:23:51.310Z,10.61
2022-11-10T07:26:39.646Z,10.64
2022-11-10T07:29:27.196Z,10.64
2022-11-10T07:32:14.872Z,10.56
2022-11-10T07:35:02.593Z,10.64
2022-11-10T07:37:49.553Z,10.67
2022-11-10T07:40:37.955Z,10.70
2022-11-10T07:43:26.965Z,10.81
2022-11-10T07:46:14.682Z,10.86
2022-11-10T07:49:01.804Z,10.87
2022-11-10T07:51:48.714Z,10.91
2022-11-10T07:54:36.173Z,10.89
2022-11-10T07:57:23.299Z,11.04
2022-11-10T08:00:14.228Z,11.10
2022-11-10T08:03:05.712Z,11.12
2022-11-10T08:05:53.095Z,11.12
2022-11-10T08:08:39.918Z,11.21
2022-11-10T08:11:27.264Z,11.31
2022-11-10T08:14:14.377Z,11.41
2022-11-10T08:17:03.749Z,11.44
2022-11-10T08:19:50.703Z,11.55
2022-11-10T08:22:38.242Z,11.55
2022-11-10T08:25:26.378Z,11.61
2022-11-10T08:28:17.814Z,11.61
2022-11-10T08:31:06.304Z,11.74
2022-11-10T08:33:55.225Z,12.04
2022-11-10T08:36:42.828Z,12.33
2022-11-10T08:39:39.134Z,12.77
2022-11-10T08:42:26.134Z,13.15
2022-11-10T08:45:13.853Z,13.35
2022-11-10T08:48:02.651Z,13.61
2022-11-10T08:50:53.030Z,13.90
2022-11-10T08:53:39.886Z,13.96
2022-11-10T08:56:27.101Z,14.10
2022-11-10T08:59:14.805Z,14.11
2022-11-10T09:02:01.757Z,14.30
2022-11-10T09:04:49.724Z,14.52
2022-11-10T09:07:45.969Z,14.68
2022-11-10T09:10:33.215Z,14.78
2022-11-10T09:13:27.745Z,15.02
2022-11-10T09:16:16.651Z,15.29
2022-11-10T09:19:04.175Z,15.58
2022-11-10T09:21:51.356Z,15.81
2022-11-10T09:24:39.597Z,15.86
2022-11-10T09:27:26.822Z,15.60
2022-11-10T09:30:17.949Z,15.15
2022-11-10T09:33:10.295Z,15.38
2022-11-10T09:36:01.967Z,15.45
2022-11-10T09:38:49.797Z,15.50
2022-11-10T09:41:41.828Z,15.46
2022-11-10T09:44:34.967Z,15.61
2022-11-10T09:47:55.668Z,15.75
2022-11-10T09:50:41.534Z,15.96
2022-11-10T09:53:35.530Z,15.86
2022-11-10T09:56:31.269Z,15.89
2022-11-10T09:59:26.537Z,15.74
2022-11-10T10:02:23.951Z,15.62
2022-11-10T10:05:46.513Z,15.84
2022-11-10T10:08:46.409Z,16.33
2022-11-10T10:11:44.154Z,16.70
2022-11-10T10:14:49.462Z,16.67
2022-11-10T10:17:41.705Z,16.99
2022-11-10T10:20:36.273Z,17.05
2022-11-10T10:23:54.353Z,17.15
2022-11-10T10:26:43.210Z,17.31
2022-11-10T10:29:37.880Z,17.49
2022-11-10T10:32:27.930Z,17.52
2022-11-10T10:35:16.681Z,17.28
2022-11-10T10:38:06.026Z,17.29
2022-11-10T10:40:58.356Z,17.59
2022-11-10T10:43:49.996Z,17.50
2022-11-10T10:46:46.231Z,17.05
2022-11-10T10:49:36.311Z,16.54
2022-11-10T10:52:25.343Z,16.40
2022-11-10T10:55:15.235Z,16.17
2022-11-10T10:58:04.207Z,15.94
2022-11-10T11:00:55.332Z,15.78
2022-11-10T11:03:44.501Z,15.55
2022-11-10T11:06:35.376Z,15.43
2022-11-10T11:09:25.327Z,15.28
2022-11-10T11:12:15.083Z,15.18
2022-11-10T11:15:22.059Z,15.01
2022-11-10T11:18:16.320Z,14.78
2022-11-10T11:21:10.299Z,14.70
2022-11-10T11:24:13.670Z,14.78
2022-11-10T11:27:05.996Z,14.73
2022-11-10T11:30:05.872Z,14.62
2022-11-10T11:33:14.756Z,14.54
2022-11-10T11:36:10.398Z,14.53
2022-11-10T11:39:05.839Z,14.46
2022-11-10T11:42:05.699Z,14.41
2022-11-10T11:45:05.108Z,14.29
2022-11-10T11:48:12.038Z,14.87
2022-11-10T11:51:06.740Z,15.40
2022-11-10T11:54:13.907Z,15.50
2022-11-10T11:57:15.010Z,15.55
2022-11-10T12:00:10.391Z,15.99
2022-11-10T12:03:23.389Z,16.55
2022-11-10T12:06:28.138Z,17.14
2022-11-10T12:09:24.047Z,17.47
2022-11-10T12:12:33.429Z,17.61
2022-11-10T12:15:30.019Z,17.24
2022-11-10T12:18:30.463Z,16.91
2022-11-10T12:21:25.845Z,16.56
2022-11-10T12:24:36.176Z,16.23
2022-11-10T12:27:29.646Z,15.92
2022-11-10T12:30:19.231Z,16.10
2022-11-10T12:33:14.413Z,16.85
2022-11-10T12:36:04.375Z,17.40
2022-11-10T12:39:00.096Z,17.64
2022-11-10T12:41:50.854Z,17.77
2022-11-10T12:44:44.566Z,17.92
2022-11-10T12:47:37.040Z,18.35
2022-11-10T12:50:45.567Z,18.76
2022-11-10T12:53:34.865Z,19.08
2022-11-10T12:56:27.918Z,19.26
2022-11-10T12:59:23.439Z,19.53
2022-11-10T13:02:24.816Z,19.92
2022-11-10T13:05:24.835Z,20.16
2022-11-10T13:08:25.547Z,20.34
2022-11-10T13:11:27.120Z,20.33
2022-11-10T13:14:23.707Z,20.41
2022-11-10T13:17:12.762Z,20.34
2022-11-10T13:20:20.481Z,20.53
2022-11-10T13:23:23.399Z,20.74
2022-11-10T13:26:11.899Z,20.73
2022-11-10T13:29:02.659Z,20.64
2022-11-10T13:31:57.733Z,20.35
2022-11-10T13:34:46.061Z,20.30
2022-11-10T13:37:51.011Z,20.45
2022-11-10T13:40:39.624Z,20.36
2022-11-10T13:43:29.056Z,20.52
2022-11-10T13:46:16.116Z,19.99
2022-11-10T13:49:39.419Z,20.19
2022-11-10T13:52:45.488Z,20.24
2022-11-10T13:55:49.050Z,20.24
2022-11-10T13:58:37.686Z,20.30
2022-11-10T14:01:28.992Z,20.37
2022-11-10T14:04:42.300Z,20.51
2022-11-10T14:07:32.585Z,20.52
2022-11-10T14:10:35.722Z,20.46
2022-11-10T14:13:29.306Z,20.48
2022-11-10T14:16:23.215Z,20.53
2022-11-10T14:19:25.697Z,20.48
2022-11-10T14:22:23.843Z,20.41
2022-11-10T14:25:20.326Z,20.37
2022-11-10T14:28:26.076Z,20.25
2022-11-10T14:31:20.623Z,20.18
2022-11-10T14:34:14.131Z,20.11
2022-11-10T14:37:04.894Z,19.85
2022-11-10T14:39:55.796Z,19.59
2022-11-10T14:42:42.911Z,19.33
2022-11-10T14:45:31.719Z,18.91
2022-11-10T14:48:21.202Z,18.49
2022-11-10T14:51:14.126Z,18.21
2022-11-10T14:54:02.695Z,17.95
2022-11-10T14:56:50.568Z,17.79
2022-11-10T14:59:38.828Z,17.59
2022-11-10T15:02:26.924Z,17.46
2022-11-10T15:05:16.861Z,17.28
2022-11-10T15:08:05.381Z,17.14
2022-11-10T15:10:56.624Z,16.91
2022-11-10T15:13:43.931Z,16.72
2022-11-10T15:16:32.874Z,16.52
2022-11-10T15:19:28.590Z,16.28
2022-11-10T15:22:20.752Z,15.99
2022-11-10T15:25:16.284Z,15.83
2022-11-10T15:28:06.890Z,15.54
2022-11-10T15:30:56.483Z,15.42
2022-11-10T15:33:48.265Z,15.31
2022-11-10T15:36:39.563Z,15.20
2022-11-10T15:39:28.758Z,15.09
2022-11-10T15:42:17.963Z,14.94
2022-11-10T15:45:05.319Z,14.85
2022-11-10T15:47:52.543Z,14.70
2022-11-10T15:50:39.744Z,14.61
2022-11-10T15:53:31.384Z,14.48
2022-11-10T15:56:20.504Z,14.37
2022-11-10T15:59:07.826Z,14.20
2022-11-10T16:01:55.363Z,14.16
2022-11-10T16:04:42.610Z,14.05
2022-11-10T16:07:29.619Z,13.96
2022-11-10T16:10:18.273Z,13.86
2022-11-10T16:13:05.479Z,13.67
2022-11-10T16:15:52.943Z,13.55
2022-11-10T16:18:43.849Z,13.48
2022-11-10T16:21:31.270Z,13.44
2022-11-10T16:24:18.502Z,13.38
2022-11-10T16:27:09.080Z,13.33
2022-11-10T16:29:56.150Z,13.29
2022-11-10T16:32:43.355Z,13.19
2022-11-10T16:35:30.426Z,13.09
2022-11-10T16:38:20.740Z,13.03
2022-11-10T16:41:14.104Z,12.98
2022-11-10T16:44:03.283Z,12.89
2022-11-10T16:46:54.549Z,12.80
2022-11-10T16:49:46.034Z,12.72
2022-11-10T16:52:33.372Z,12.68
2022-11-10T16:55:20.278Z,12.67
2022-11-10T16:58:07.993Z,12.61
2022-11-10T17:01:00.738Z,12.38
2022-11-10T17:03:51.329Z,12.46
2022-11-10T17:06:39.012Z,12.36
2022-11-10T17:09:27.104Z,12.31
2022-11-10T17:12:15.152Z,12.32
2022-11-10T17:15:02.805Z,12.33
2022-11-10T17:17:54.242Z,12.29
2022-11-10T17:20:44.282Z,12.19
2022-11-10T17:23:31.837Z,12.15
2022-11-10T17:26:20.785Z,11.95
2022-11-10T17:29:07.783Z,12.00
2022-11-10T17:31:56.048Z,11.93
2022-11-10T17:34:44.430Z,11.82
2022-11-10T17:37:31.934Z,11.76
2022-11-10T17:40:21.655Z,11.77
2022-11-10T17:43:11.469Z,11.76
2022-11-10T17:46:00.126Z,11.62
2022-11-10T17:48:47.853Z,11.63
2022-11-10T17:51:37.601Z,11.57
2022-11-10T17:54:25.771Z,11.52
2022-11-10T17:57:13.095Z,11.51
2022-11-10T18:00:00.102Z,11.50
2022-11-10T18:02:54.162Z,11.46
2022-11-10T18:05:43.313Z,11.41
2022-11-10T18:08:32.509Z,11.26
2022-11-10T18:11:20.158Z,11.18
2022-11-10T18:14:07.281Z,11.11
2022-11-10T18:16:54.209Z,10.97
2022-11-10T18:19:42.137Z,10.99
2022-11-10T18:22:29.213Z,11.02
2022-11-10T18:25:18.192Z,11.01
2022-11-10T18:28:05.164Z,11.02
2022-11-10T18:30:51.817Z,11.02
2022-11-10T18:33:39.571Z,10.88
2022-11-10T18:36:26.830Z,10.71
2022-11-10T18:39:14.346Z,10.75
2022-11-10T18:42:02.801Z,10.78
2022-11-10T18:44:51.947Z,10.58
2022-11-10T18:47:40.289Z,10.52
2022-11-10T18:50:27.255Z,10.41
2022-11-10T18:53:14.407Z,10.36
2022-11-10T18:56:01.385Z,10.36
2022-11-10T18:58:56.442Z,10.27
2022-11-10T19:01:44.280Z,10.23
2022-11-10T19:04:31.171Z,10.23
2022-11-10T19:07:18.210Z,10.21
2022-11-10T19:10:06.535Z,10.07
2022-11-10T19:12:53.064Z,10.15
2022-11-10T19:15:42.666Z,10.20
2022-11-10T19:18:30.272Z,10.19
2022-11-10T19:21:19.746Z,10.25
2022-11-10T19:24:07.235Z,10.23
2022-11-10T19:26:54.774Z,10.18
2022-11-10T19:29:41.945Z,10.18
2022-11-10T19:32:32.186Z,10.15
2022-11-10T19:35:19.858Z,10.12
2022-11-10T19:38:07.283Z,10.14
2022-11-10T19:40:55.151Z,10.04
2022-11-10T19:43:47.134Z,10.00
2022-11-10T19:46:37.606Z,9.88
2022-11-10T19:49:25.870Z,9.85
2022-11-10T19:52:13.346Z,9.82
2022-11-10T19:55:00.449Z,9.79
2022-11-10T19:57:47.705Z,9.75
2022-11-10T20:00:35.967Z,9.78
2022-11-10T20:03:23.489Z,9.72
2022-11-10T20:06:13.855Z,9.58
2022-11-10T20:09:00.750Z,9.59
2022-11-10T20:11:48.198Z,9.59
2022-11-10T20:14:35.323Z,9.50
2022-11-10T20:17:23.535Z,9.35
2022-11-10T20:20:10.564Z,9.27
2022-11-10T20:23:03.253Z,9.39
2022-11-10T20:25:50.363Z,9.45
2022-11-10T20:28:39.375Z,9.45
2022-11-10T20:31:27.003Z,9.33
2022-11-10T20:34:15.209Z,9.21
2022-11-10T20:37:01.906Z,9.12
2022-11-10T20:39:50.228Z,9.11
2022-11-10T20:42:42.390Z,9.14
2022-11-10T20:45:29.769Z,9.08
2022-11-10T20:48:16.670Z,9.04
2022-11-10T20:51:10.154Z,8.93
2022-11-10T20:53:59.227Z,8.88
2022-11-10T20:56:48.727Z,8.99
2022-11-10T20:59:36.364Z,9.07
2022-11-10T21:02:23.750Z,9.09
2022-11-10T21:05:10.704Z,9.03
2022-11-10T21:07:58.054Z,8.88
2022-11-10T21:10:51.124Z,8.81
2022-11-10T21:13:40.043Z,8.84
2022-11-10T21:16:27.321Z,8.76
2022-11-10T21:19:14.341Z,8.68
2022-11-10T21:22:01.574Z,8.53
2022-11-10T21:24:49.146Z,8.67
2022-11-10T21:27:36.230Z,8.76
2022-11-10T21:30:24.497Z,8.78
2022-11-10T21:33:12.027Z,8.71
2022-11-10T21:35:59.058Z,8.65
2022-11-10T21:38:47.131Z,8.51
2022-11-10T21:41:34.091Z,8.48
2022-11-10T21:44:21.882Z,8.50
2022-11-10T21:47:10.502Z,8.40
2022-11-10T21:49:57.775Z,8.46
2022-11-10T21:52:44.765Z,8.49
2022-11-10T21:55:32.143Z,8.50
2022-11-10T21:58:19.243Z,8.48
2022-11-10T22:01:08.659Z,8.48
2022-11-10T22:03:56.955Z,8.47
2022-11-10T22:07:10.361Z,8.40
2022-11-10T22:10:14.996Z,8.34
2022-11-10T22:13:20.352Z,8.24
2022-11-10T22:16:39.191Z,8.22
2022-11-10T22:19:27.610Z,8.29
2022-11-10T22:22:15.594Z,8.27
2022-11-10T22:25:02.273Z,8.20
2022-11-10T22:27:49.882Z,8.15
2022-11-10T22:30:37.396Z,8.12
2022-11-10T22:33:34.614Z,8.03
2022-11-10T22:36:23.169Z,7.96
2022-11-10T22:39:10.560Z,7.90
2022-11-10T22:42:15.745Z,7.97
2022-11-10T22:45:02.966Z,8.02
2022-11-10T22:48:07.662Z,7.95
2022-11-10T22:50:55.536Z,7.79
2022-11-10T22:53:43.875Z,7.79
2022-11-10T22:56:33.205Z,7.82
2022-11-10T22:59:21.027Z,7.76
2022-11-10T23:02:08.583Z,7.79
2022-11-10T23:04:55.484Z,7.81
2022-11-10T23:07:42.833Z,7.82
2022-11-10T23:10:31.711Z,7.79
2022-11-10T23:13:19.293Z,7.81
2022-11-10T23:16:08.858Z,7.89
2022-11-10T23:18:56.766Z,7.88
2022-11-10T23:21:44.838Z,7.80
2022-11-10T23:24:31.693Z,7.78
2022-11-10T23:27:20.439Z,7.72
2022-11-10T23:30:08.884Z,7.46
2022-11-10T23:32:56.061Z,7.51
2022-11-10T23:35:43.551Z,7.51
2022-11-10T23:38:31.625Z,7.54
2022-11-10T23:41:21.886Z,7.59
2022-11-10T23:44:10.809Z,7.64
2022-11-10T23:46:57.814Z,7.67
2022-11-10T23:49:45.825Z,7.60
2022-11-10T23:52:33.105Z,7.62
2022-11-10T23:55:20.461Z,7.54
2022-11-10T23:58:07.806Z,7.50
